createdAt,value
2019-05-07T01:42:56.739Z,7.20
2019-05-07T01:45:41.770Z,7.83
2019-05-07T01:48:04.223Z,7.40
2019-05-07T01:50:34.399Z,7.00
2019-05-07T01:53:05.703Z,7.63
2019-05-07T01:55:37.055Z,7.53
2019-05-07T01:58:08.357Z,8.13
2019-05-07T02:00:39.789Z,7.60
2019-05-07T02:03:15.105Z,7.65
2019-05-07T02:05:48.008Z,8.10
2019-05-07T02:08:22.135Z,7.37
2019-05-07T02:10:55.163Z,7.57
2019-05-07T02:13:26.485Z,7.00
2019-05-07T02:16:01.252Z,7.57
2019-05-07T02:18:32.576Z,6.73
2019-05-07T02:21:03.846Z,7.27
2019-05-07T02:23:35.072Z,7.37
2019-05-07T02:26:06.347Z,6.67
2019-05-07T02:28:37.575Z,6.40
2019-05-07T02:31:09.924Z,7.60
2019-05-07T02:33:43.442Z,6.65
2019-05-07T02:36:14.519Z,5.83
2019-05-07T02:38:47.462Z,6.37
2019-05-07T02:41:26.222Z,6.72
2019-05-07T02:44:00.076Z,6.10
2019-05-07T02:46:34.862Z,7.37
2019-05-07T02:49:14.457Z,7.27
2019-05-07T02:51:47.442Z,6.20
2019-05-07T02:54:26.048Z,6.50
2019-05-07T02:56:57.355Z,6.30
2019-05-07T02:59:28.607Z,7.07
2019-05-07T03:01:59.914Z,6.40
2019-05-07T03:04:33.359Z,6.50
2019-05-07T03:07:04.384Z,5.93
2019-05-07T03:09:35.882Z,6.03
2019-05-07T03:12:07.252Z,6.60
2019-05-07T03:14:38.565Z,6.33
2019-05-07T03:17:12.963Z,6.50
2019-05-07T03:19:45.562Z,5.93
2019-05-07T03:22:17.443Z,5.93
2019-05-07T03:24:53.158Z,5.97
2019-05-07T03:27:24.628Z,6.90
2019-05-07T03:29:57.599Z,6.90
2019-05-07T03:32:37.785Z,6.90
2019-05-07T03:35:20.662Z,6.93
2019-05-07T03:37:54.701Z,6.83
2019-05-07T03:40:25.237Z,6.93
2019-05-07T03:42:56.565Z,7.40
2019-05-07T03:45:29.519Z,7.10
2019-05-07T03:48:23.404Z,7.07
2019-05-07T03:50:54.860Z,6.73
2019-05-07T03:53:26.154Z,7.77
2019-05-07T03:55:57.499Z,8.57
2019-05-07T03:58:28.751Z,8.00
2019-05-07T04:01:00.060Z,7.53
2019-05-07T04:03:34.122Z,8.03
2019-05-07T04:06:04.720Z,8.03
2019-05-07T04:08:35.952Z,7.73
2019-05-07T04:11:07.347Z,7.33
2019-05-07T04:13:38.569Z,7.23
2019-05-07T04:16:13.438Z,7.23
2019-05-07T04:18:43.900Z,7.63
2019-05-07T04:21:15.569Z,7.50
2019-05-07T04:23:48.541Z,7.27
2019-05-07T04:26:23.233Z,6.90
2019-05-07T04:28:59.032Z,8.77
2019-05-07T04:31:34.191Z,6.33
2019-05-07T04:34:09.631Z,7.90
2019-05-07T04:36:43.586Z,7.80
2019-05-07T04:39:15.324Z,7.50
2019-05-07T04:41:46.738Z,8.27
2019-05-07T04:44:18.038Z,6.80
2019-05-07T04:46:49.298Z,7.83
2019-05-07T04:49:23.598Z,8.37
2019-05-07T04:51:57.997Z,8.97
2019-05-07T04:54:29.256Z,7.90
2019-05-07T04:57:03.450Z,8.70
2019-05-07T04:59:33.468Z,8.57
2019-05-07T05:02:13.542Z,8.17
2019-05-07T05:04:45.166Z,8.07
2019-05-07T05:07:16.465Z,9.20
2019-05-07T05:09:47.878Z,8.17
2019-05-07T05:12:19.181Z,9.00
2019-05-07T05:14:52.333Z,8.63
2019-05-07T05:17:23.451Z,9.10
2019-05-07T05:19:54.713Z,9.87
2019-05-07T05:22:42.521Z,8.13
2019-05-07T05:25:19.502Z,9.60
2019-05-07T05:27:52.646Z,9.87
2019-05-07T05:30:42.614Z,9.83
2019-05-07T05:33:15.179Z,9.43
2019-05-07T05:35:46.444Z,9.93
2019-05-07T05:38:17.692Z,9.68
2019-05-07T05:40:49.002Z,10.60
2019-05-07T05:43:33.939Z,10.33
2019-05-07T05:46:12.103Z,10.05
2019-05-07T05:48:43.318Z,9.23
2019-05-07T05:51:23.432Z,9.77
2019-05-07T05:53:57.395Z,11.08
2019-05-07T05:56:28.548Z,10.27
2019-05-07T05:59:05.550Z,11.37
2019-05-07T06:01:45.577Z,11.00
2019-05-07T06:04:36.624Z,10.13
2019-05-07T06:07:14.791Z,11.10
2019-05-07T06:09:57.294Z,10.83
2019-05-07T06:12:40.047Z,11.33
2019-05-07T06:15:19.140Z,11.20
2019-05-07T06:18:17.673Z,10.67
2019-05-07T06:20:38.784Z,10.80
2019-05-07T06:23:22.519Z,11.08
2019-05-07T06:25:54.037Z,9.50
2019-05-07T06:28:25.317Z,8.88
2019-05-07T06:30:56.613Z,8.63
2019-05-07T06:33:28.099Z,8.83
2019-05-07T06:35:59.318Z,8.60
2019-05-07T06:38:32.298Z,7.67
2019-05-07T06:41:06.474Z,9.00
2019-05-07T06:43:57.706Z,8.95
2019-05-07T06:46:29.030Z,8.75
2019-05-07T06:49:02.175Z,9.75
2019-05-07T06:51:33.221Z,9.63
2019-05-07T06:54:04.615Z,8.55
2019-05-07T06:56:35.911Z,8.80
2019-05-07T06:59:09.215Z,9.23
2019-05-07T07:01:59.324Z,8.05
2019-05-07T07:04:42.379Z,8.98
2019-05-07T07:07:29.670Z,9.63
2019-05-07T07:10:04.842Z,9.35
2019-05-07T07:12:36.385Z,8.98
2019-05-07T07:15:08.048Z,8.95
2019-05-07T07:17:41.364Z,9.15
2019-05-07T07:20:13.153Z,9.08
2019-05-07T07:22:44.444Z,9.55
2019-05-07T07:25:15.876Z,9.70
2019-05-07T07:27:47.211Z,9.45
2019-05-07T07:30:21.874Z,10.68
2019-05-07T07:32:55.023Z,10.48
2019-05-07T07:35:26.512Z,10.23
2019-05-07T07:37:57.827Z,10.80
2019-05-07T07:40:37.055Z,9.75
2019-05-07T07:43:08.388Z,10.75
2019-05-07T07:45:41.898Z,9.60
2019-05-07T07:48:13.298Z,9.98
2019-05-07T07:50:44.754Z,9.75
2019-05-07T07:53:16.108Z,9.23
2019-05-07T07:56:05.557Z,9.48
2019-05-07T07:58:41.814Z,8.25
2019-05-07T08:01:20.104Z,8.70
2019-05-07T08:03:52.289Z,8.60
2019-05-07T08:06:25.426Z,9.13
2019-05-07T08:08:56.991Z,8.10
2019-05-07T08:11:28.373Z,9.03
2019-05-07T08:14:02.203Z,8.58
2019-05-07T08:16:32.928Z,8.53
2019-05-07T08:19:17.547Z,9.18
2019-05-07T08:21:37.373Z,8.20
2019-05-07T08:24:08.701Z,8.13
2019-05-07T08:26:40.118Z,7.80
2019-05-07T08:29:12.009Z,7.85
2019-05-07T08:31:48.459Z,8.28
2019-05-07T08:34:25.682Z,7.72
2019-05-07T08:36:57.025Z,7.65
2019-05-07T08:39:28.405Z,7.22
2019-05-07T08:42:01.992Z,7.45
2019-05-07T08:44:44.711Z,7.20
2019-05-07T08:47:22.702Z,8.03
2019-05-07T08:49:53.724Z,8.25
2019-05-07T08:52:26.075Z,7.15
2019-05-07T08:54:57.548Z,6.92
2019-05-07T08:57:28.948Z,8.08
2019-05-07T09:00:01.633Z,7.25
2019-05-07T09:02:33.260Z,6.85
2019-05-07T09:05:09.126Z,7.55
2019-05-07T09:07:39.714Z,7.12
2019-05-07T09:10:12.707Z,6.90
2019-05-07T09:12:44.256Z,6.78
2019-05-07T09:15:15.766Z,7.42
2019-05-07T09:17:47.075Z,7.25
2019-05-07T09:20:18.767Z,6.40
2019-05-07T09:22:51.812Z,6.20
2019-05-07T09:25:23.536Z,6.47
2019-05-07T09:27:55.154Z,6.35
2019-05-07T09:30:44.347Z,6.30
2019-05-07T09:33:17.347Z,6.35
2019-05-07T09:35:50.393Z,6.83
2019-05-07T09:38:22.341Z,6.42
2019-05-07T09:40:56.841Z,5.35
2019-05-07T09:43:27.001Z,4.72
2019-05-07T09:45:58.229Z,4.80
2019-05-07T09:48:29.597Z,5.28
2019-05-07T09:51:02.318Z,5.45
2019-05-07T09:53:33.806Z,4.33
2019-05-07T09:56:05.237Z,5.25
2019-05-07T09:58:39.224Z,4.75
2019-05-07T10:01:09.739Z,3.95
2019-05-07T10:03:42.862Z,3.50
2019-05-07T10:06:14.421Z,4.35
2019-05-07T10:08:45.829Z,4.20
2019-05-07T10:11:18.850Z,3.58
2019-05-07T10:13:54.995Z,3.40
2019-05-07T10:16:31.018Z,3.83
2019-05-07T10:19:02.816Z,3.80
2019-05-07T10:21:34.260Z,5.05
2019-05-07T10:24:06.058Z,4.70
2019-05-07T10:26:40.002Z,4.90
2019-05-07T10:29:12.607Z,4.33
2019-05-07T10:31:45.623Z,4.60
2019-05-07T10:34:16.997Z,4.80
2019-05-07T10:36:48.386Z,4.37
2019-05-07T10:39:19.675Z,4.10
2019-05-07T10:41:51.180Z,4.30
2019-05-07T10:44:24.234Z,4.70
2019-05-07T10:47:13.202Z,5.15
2019-05-07T10:49:46.264Z,4.08
2019-05-07T10:52:17.645Z,4.70
2019-05-07T10:54:59.044Z,4.80
2019-05-07T10:57:22.392Z,4.78
2019-05-07T10:59:53.669Z,4.55
2019-05-07T11:02:26.577Z,5.00
2019-05-07T11:04:57.968Z,4.62
2019-05-07T11:07:29.373Z,4.80
2019-05-07T11:10:01.966Z,4.75
2019-05-07T11:12:33.512Z,4.83
2019-05-07T11:15:06.892Z,4.65
2019-05-07T11:17:41.797Z,6.92
2019-05-07T11:20:14.054Z,4.65
2019-05-07T11:22:45.300Z,4.00
2019-05-07T11:25:16.720Z,4.03
2019-05-07T11:27:48.204Z,4.10
2019-05-07T11:30:22.571Z,4.47
2019-05-07T11:32:53.592Z,4.85
2019-05-07T11:35:24.916Z,4.12
2019-05-07T11:37:56.339Z,4.05
2019-05-07T11:40:28.589Z,4.25
2019-05-07T11:43:12.893Z,4.47
2019-05-07T11:45:54.487Z,4.87
2019-05-07T11:48:27.354Z,4.20
2019-05-07T11:52:08.484Z,4.12
2019-05-07T11:54:26.392Z,3.62
2019-05-07T11:57:02.960Z,3.52
2019-05-07T11:59:36.210Z,3.40
2019-05-07T12:02:08.004Z,2.98
2019-05-07T12:04:42.307Z,3.35
2019-05-07T12:07:17.946Z,3.60
2019-05-07T12:09:49.327Z,3.58
2019-05-07T12:12:22.164Z,3.33
2019-05-07T12:14:53.804Z,3.40
2019-05-07T12:17:25.120Z,3.50
2019-05-07T12:19:57.372Z,3.52
2019-05-07T12:22:46.972Z,3.35
2019-05-07T12:25:19.618Z,3.37
2019-05-07T12:27:53.850Z,3.55
2019-05-07T12:30:47.990Z,3.45
2019-05-07T12:33:37.406Z,3.50
2019-05-07T12:36:12.593Z,3.77
2019-05-07T12:38:43.973Z,3.62
2019-05-07T12:41:17.178Z,3.50
2019-05-07T12:43:51.956Z,3.40
2019-05-07T12:46:25.203Z,3.70
2019-05-07T12:48:56.585Z,3.30
2019-05-07T12:51:34.579Z,4.05
2019-05-07T12:54:14.563Z,3.60
2019-05-07T12:56:46.327Z,3.30
2019-05-07T12:59:17.580Z,3.35
2019-05-07T13:02:16.694Z,3.98
2019-05-07T13:04:52.189Z,4.08
2019-05-07T13:07:23.923Z,3.83
2019-05-07T13:09:56.297Z,4.00
2019-05-07T13:12:28.153Z,3.60
2019-05-07T13:15:02.757Z,4.08
2019-05-07T13:17:35.192Z,3.87
2019-05-07T13:20:12.131Z,4.25
2019-05-07T13:22:43.644Z,4.40
2019-05-07T13:25:17.970Z,4.22
2019-05-07T13:27:49.441Z,4.10
2019-05-07T13:30:22.191Z,4.08
2019-05-07T13:32:56.690Z,4.35
2019-05-07T13:35:28.216Z,3.58
2019-05-07T13:38:04.532Z,4.45
2019-05-07T13:40:56.083Z,4.17
2019-05-07T13:43:37.721Z,4.03
2019-05-07T13:46:13.903Z,4.03
2019-05-07T13:48:45.726Z,3.77
2019-05-07T13:51:17.321Z,4.20
2019-05-07T13:53:54.777Z,3.90
2019-05-07T13:56:26.376Z,3.72
2019-05-07T13:58:57.843Z,4.15
2019-05-07T14:01:33.791Z,4.00
2019-05-07T14:04:07.383Z,4.40
2019-05-07T14:06:43.203Z,4.42
2019-05-07T14:09:23.659Z,3.83
2019-05-07T14:11:52.983Z,4.12
2019-05-07T14:14:24.441Z,4.20
2019-05-07T14:16:55.747Z,3.92
2019-05-07T14:19:28.636Z,4.00
2019-05-07T14:21:59.988Z,3.70
2019-05-07T14:24:32.780Z,3.90
2019-05-07T14:27:07.414Z,4.67
2019-05-07T14:29:39.108Z,3.75
2019-05-07T14:32:15.544Z,3.30
2019-05-07T14:35:32.146Z,3.60
2019-05-07T14:45:08.487Z,2.90
2019-05-07T14:47:40.004Z,2.40
2019-05-07T14:50:12.347Z,3.22
2019-05-07T14:52:43.907Z,2.60
2019-05-07T14:55:15.664Z,3.12
2019-05-07T14:57:47.187Z,2.95
2019-05-07T15:00:18.768Z,2.95
2019-05-07T15:02:52.349Z,3.27
2019-05-07T15:05:23.410Z,2.83
2019-05-07T15:08:07.381Z,2.90
2019-05-07T15:10:28.795Z,2.83
2019-05-07T15:13:02.242Z,2.62
2019-05-07T15:15:33.751Z,3.20
2019-05-07T15:18:09.559Z,3.27
2019-05-07T15:20:41.916Z,2.90
2019-05-07T15:23:22.556Z,3.17
2019-05-07T15:25:54.201Z,3.30
2019-05-07T15:28:27.980Z,3.40
2019-05-07T15:31:04.550Z,2.50
2019-05-07T15:33:35.945Z,3.20
2019-05-07T15:36:11.826Z,2.90
2019-05-07T15:40:32.919Z,2.80
2019-05-07T15:55:42.239Z,2.85
2019-05-07T15:58:13.610Z,3.00
2019-05-07T16:00:46.581Z,3.55
2019-05-07T16:03:35.239Z,3.47
2019-05-07T16:06:07.356Z,3.35
2019-05-07T16:08:43.955Z,2.80
2019-05-07T16:11:15.371Z,2.50
2019-05-07T16:14:04.686Z,2.33
2019-05-07T16:16:42.728Z,2.27
2019-05-07T16:19:18.173Z,3.00
2019-05-07T16:21:49.528Z,2.80
2019-05-07T16:24:22.576Z,3.10
2019-05-07T16:26:57.429Z,2.60
2019-05-07T16:29:29.557Z,2.47
2019-05-07T16:32:02.388Z,2.60
2019-05-07T16:34:33.813Z,2.72
2019-05-07T16:37:07.456Z,2.67
2019-05-07T16:39:38.179Z,2.77
2019-05-07T16:42:09.458Z,3.37
2019-05-07T16:44:41.724Z,3.17
2019-05-07T16:47:13.168Z,2.77
2019-05-07T16:49:45.108Z,3.02
2019-05-07T16:52:16.393Z,3.40
2019-05-07T16:54:47.698Z,3.15
2019-05-07T16:57:21.603Z,3.05
2019-05-07T16:59:53.042Z,3.08
2019-05-07T17:02:28.688Z,2.85
2019-05-07T17:05:07.517Z,3.12
2019-05-07T17:07:42.692Z,3.22
2019-05-07T17:10:15.341Z,3.30
2019-05-07T17:12:46.942Z,3.47
2019-05-07T17:15:18.820Z,3.20
2019-05-07T17:17:51.782Z,3.55
2019-05-07T17:20:24.657Z,3.45
2019-05-07T17:22:56.978Z,3.15
2019-05-07T17:25:37.181Z,3.30
2019-05-07T17:28:12.444Z,2.55
2019-05-07T17:30:43.626Z,3.17
2019-05-07T17:33:14.931Z,4.30
2019-05-07T17:35:47.157Z,4.55
2019-05-07T17:38:18.583Z,4.22
2019-05-07T17:40:51.963Z,4.40
2019-05-07T17:43:23.083Z,4.12
2019-05-07T17:45:54.476Z,4.12
2019-05-07T17:48:25.825Z,3.98
2019-05-07T17:50:56.843Z,4.17
2019-05-07T17:53:28.202Z,4.17
2019-05-07T17:56:02.973Z,5.03
2019-05-07T17:58:34.415Z,6.08
2019-05-07T18:01:07.050Z,6.90
2019-05-07T18:03:42.613Z,4.03
2019-05-07T18:06:13.604Z,6.28
2019-05-07T18:08:44.990Z,4.42
2019-05-07T18:11:20.913Z,4.30
2019-05-07T18:13:51.737Z,4.08
2019-05-07T18:16:38.090Z,4.17
2019-05-07T18:19:09.508Z,3.75
2019-05-07T18:21:41.810Z,4.03
2019-05-07T18:24:16.607Z,3.98
2019-05-07T18:26:46.980Z,3.27
2019-05-07T18:29:18.323Z,3.60
2019-05-07T18:31:54.385Z,3.55
2019-05-07T18:34:26.718Z,3.50
2019-05-07T18:36:58.321Z,3.30
2019-05-07T18:39:29.655Z,3.40
2019-05-07T18:42:02.865Z,2.95
2019-05-07T18:44:34.394Z,3.60
2019-05-07T18:47:05.928Z,3.70
2019-05-07T18:49:37.332Z,3.10
2019-05-07T18:52:09.762Z,3.30
2019-05-07T18:54:42.844Z,3.40
2019-05-07T18:57:14.393Z,3.55
2019-05-07T18:59:47.484Z,3.17
2019-05-07T19:02:18.997Z,3.90
2019-05-07T19:04:51.903Z,3.40
2019-05-07T19:07:23.621Z,3.45
2019-05-07T19:09:55.049Z,3.12
2019-05-07T19:12:27.986Z,3.37
2019-05-07T19:14:59.442Z,3.25
2019-05-07T19:17:32.294Z,3.35
2019-05-07T19:20:05.284Z,3.33
2019-05-07T19:22:38.058Z,3.45
2019-05-07T19:25:11.876Z,3.55
2019-05-07T19:27:43.164Z,2.92
2019-05-07T19:30:15.033Z,3.17
2019-05-07T19:33:12.589Z,3.37
2019-05-07T19:35:44.052Z,3.72
2019-05-07T19:38:15.706Z,3.30
2019-05-07T19:40:47.006Z,3.33
2019-05-07T19:43:18.512Z,3.47
2019-05-07T19:45:52.229Z,3.62
2019-05-07T19:48:23.266Z,3.40
2019-05-07T19:50:54.797Z,3.30
2019-05-07T19:53:26.175Z,3.60
2019-05-07T19:56:04.641Z,3.50
2019-05-07T19:58:43.096Z,3.65
2019-05-07T20:01:22.916Z,3.42
2019-05-07T20:03:54.341Z,3.85
2019-05-07T20:06:26.651Z,3.80
2019-05-07T20:09:09.004Z,4.40
2019-05-07T20:11:35.213Z,4.47
2019-05-07T20:14:07.230Z,5.03
2019-05-07T20:16:42.317Z,4.37
2019-05-07T20:19:15.767Z,5.30
2019-05-07T20:21:52.370Z,4.40
2019-05-07T20:24:23.474Z,5.53
2019-05-07T20:26:54.835Z,5.85
2019-05-07T20:29:29.131Z,4.97
2019-05-07T20:32:00.653Z,4.90
2019-05-07T20:34:33.259Z,5.42
2019-05-07T20:37:05.340Z,5.75
2019-05-07T20:39:37.193Z,5.85
2019-05-07T20:42:08.799Z,5.25
2019-05-07T20:44:42.457Z,5.30
2019-05-07T20:47:13.494Z,5.50
2019-05-07T20:49:45.080Z,5.97
2019-05-07T20:52:16.471Z,5.80
2019-05-07T20:54:50.324Z,6.60
2019-05-07T20:57:23.377Z,5.75
2019-05-07T20:59:54.777Z,5.85
2019-05-07T21:02:26.211Z,6.72
2019-05-07T21:04:57.496Z,6.22
2019-05-07T21:07:28.775Z,8.58
2019-05-07T21:10:02.053Z,8.00
2019-05-07T21:12:34.768Z,7.22
2019-05-07T21:15:08.245Z,6.28
2019-05-07T21:17:39.506Z,6.33
2019-05-07T21:20:12.115Z,8.08
2019-05-07T21:22:43.522Z,7.17
2019-05-07T21:25:14.890Z,6.92
2019-05-07T21:27:46.276Z,6.55
2019-05-07T21:30:17.776Z,7.33
2019-05-07T21:32:49.158Z,7.28
2019-05-07T21:35:22.395Z,6.70
2019-05-07T21:37:53.563Z,6.37
2019-05-07T21:40:24.924Z,6.60
2019-05-07T21:42:56.307Z,6.65
2019-05-07T21:45:27.795Z,6.55
2019-05-07T21:47:59.128Z,6.47
2019-05-07T21:50:30.541Z,6.20
2019-05-07T21:53:03.461Z,6.20
2019-05-07T21:56:01.697Z,6.70
2019-05-07T21:58:45.888Z,7.62
2019-05-07T22:01:22.179Z,8.93
2019-05-07T22:03:55.412Z,9.18
2019-05-07T22:06:26.868Z,8.38
2019-05-07T22:08:58.255Z,9.80
2019-05-07T22:11:32.143Z,9.33
2019-05-07T22:14:02.751Z,7.58
2019-05-07T22:16:34.124Z,6.90
2019-05-07T22:19:06.268Z,7.58
2019-05-07T22:21:37.622Z,7.15
2019-05-07T22:24:08.915Z,6.83
2019-05-07T22:26:42.034Z,5.50
2019-05-07T22:29:13.573Z,5.53
2019-05-07T22:31:58.541Z,5.28
2019-05-07T22:34:34.288Z,4.97
2019-05-07T22:37:07.681Z,5.50
2019-05-07T22:39:46.405Z,5.60
2019-05-07T22:42:25.184Z,5.58
2019-05-07T22:44:57.042Z,6.35
2019-05-07T22:47:28.393Z,5.92
2019-05-07T22:50:02.589Z,7.08
2019-05-07T22:52:33.184Z,6.75
2019-05-07T22:55:05.288Z,6.30
2019-05-07T22:57:47.403Z,6.72
2019-05-07T23:00:26.393Z,6.17
2019-05-07T23:02:57.740Z,6.60
2019-05-07T23:05:29.161Z,6.37
2019-05-07T23:08:02.402Z,6.70
2019-05-07T23:10:33.635Z,6.55
2019-05-07T23:13:05.048Z,6.05
2019-05-07T23:15:36.419Z,6.80
2019-05-07T23:18:07.956Z,6.47
2019-05-07T23:20:39.447Z,8.45
2019-05-07T23:23:13.872Z,6.78
2019-05-07T23:25:43.846Z,7.55
2019-05-07T23:28:15.139Z,7.40
2019-05-07T23:30:46.482Z,6.62
2019-05-07T23:33:17.818Z,6.75
2019-05-07T23:35:49.127Z,6.37
2019-05-07T23:38:22.384Z,7.25
2019-05-07T23:40:58.162Z,7.35
2019-05-07T23:43:29.587Z,8.45
2019-05-07T23:46:02.219Z,7.87
2019-05-07T23:48:33.570Z,6.90
2019-05-07T23:51:04.959Z,6.80
2019-05-07T23:53:36.914Z,7.10
2019-05-07T23:56:08.126Z,7.12
2019-05-07T23:58:39.477Z,6.72
